createdAt,value
2023-02-27T00:00:14.853Z,92184.78
2023-02-27T00:01:46.621Z,92187.66
2023-02-27T00:03:18.170Z,92193.13
2023-02-27T00:04:50.618Z,92203.97
2023-02-27T00:06:22.194Z,92197.44
2023-02-27T00:07:53.920Z,92202.53
2023-02-27T00:09:25.442Z,92198.47
2023-02-27T00:10:57.006Z,92201.81
2023-02-27T00:12:28.521Z,92203.13
2023-02-27T00:14:00.342Z,92198.09
2023-02-27T00:15:32.625Z,92190.34
2023-02-27T00:17:04.182Z,92184.16
2023-02-27T00:18:35.768Z,92181.69
2023-02-27T00:20:10.531Z,92182.13
2023-02-27T00:21:42.058Z,92179.13
2023-02-27T00:23:15.826Z,92184.16
2023-02-27T00:24:47.372Z,92176.56
2023-02-27T00:26:19.002Z,92176.25
2023-02-27T00:27:50.693Z,92180.97
2023-02-27T00:29:22.361Z,92185.22
2023-02-27T00:30:54.055Z,92192.16
2023-02-27T00:32:25.656Z,92197.22
2023-02-27T00:33:57.202Z,92182.09
2023-02-27T00:35:28.712Z,92182.88
2023-02-27T00:37:00.132Z,92179.72
2023-02-27T00:38:32.030Z,92183.66
2023-02-27T00:40:05.488Z,92186.34
2023-02-27T00:41:37.002Z,92172.69
2023-02-27T00:43:08.827Z,92167.63
2023-02-27T00:44:41.290Z,92165.72
2023-02-27T00:46:13.066Z,92153.38
2023-02-27T00:47:44.672Z,92151.03
2023-02-27T00:49:16.142Z,92146.00
2023-02-27T00:50:47.796Z,92153.28
2023-02-27T00:52:19.420Z,92142.16
2023-02-27T00:53:50.977Z,92161.00
2023-02-27T00:55:22.543Z,92156.06
2023-02-27T00:56:54.071Z,92160.34
2023-02-27T00:58:25.734Z,92162.38
2023-02-27T00:59:57.279Z,92154.00
2023-02-27T01:01:28.947Z,92144.34
2023-02-27T01:03:00.569Z,92151.75
2023-02-27T01:04:32.273Z,92152.09
2023-02-27T01:06:03.883Z,92157.13
2023-02-27T01:07:35.349Z,92148.72
2023-02-27T01:09:07.439Z,92151.69
2023-02-27T01:10:39.118Z,92166.72
2023-02-27T01:12:10.941Z,92162.13
2023-02-27T01:13:44.373Z,92159.09
2023-02-27T01:15:15.999Z,92150.66
2023-02-27T01:16:47.449Z,92146.75
2023-02-27T01:18:19.023Z,92152.13
2023-02-27T01:19:50.664Z,92148.19
2023-02-27T01:21:22.232Z,92142.47
2023-02-27T01:22:53.846Z,92152.94
2023-02-27T01:24:26.800Z,92145.28
2023-02-27T01:25:58.338Z,92151.44
2023-02-27T01:27:29.890Z,92156.19
2023-02-27T01:29:01.376Z,92161.56
2023-02-27T01:30:33.093Z,92164.72
2023-02-27T01:32:05.039Z,92165.38
2023-02-27T01:33:36.566Z,92155.25
2023-02-27T01:35:08.365Z,92167.16
2023-02-27T01:36:40.276Z,92173.44
2023-02-27T01:38:11.791Z,92170.28
2023-02-27T01:39:43.479Z,92182.16
2023-02-27T01:41:15.299Z,92193.41
2023-02-27T01:42:47.385Z,92192.63
2023-02-27T01:44:18.891Z,92202.16
2023-02-27T01:45:50.422Z,92197.53
2023-02-27T01:47:21.988Z,92199.91
2023-02-27T01:48:55.824Z,92203.53
2023-02-27T01:50:27.336Z,92201.47
2023-02-27T01:52:03.234Z,92203.19
2023-02-27T01:53:35.480Z,92206.69
2023-02-27T01:55:08.749Z,92210.47
2023-02-27T01:56:40.327Z,92215.53
2023-02-27T01:58:12.648Z,92254.66
2023-02-27T01:59:44.971Z,92325.81
2023-02-27T02:01:17.078Z,92362.03
2023-02-27T02:03:00.876Z,92371.25
2023-02-27T02:05:25.115Z,92367.53
2023-02-27T02:07:31.402Z,92398.22
2023-02-27T02:09:03.325Z,92405.56
2023-02-27T02:10:34.972Z,92420.56
2023-02-27T02:12:06.552Z,92407.72
2023-02-27T02:13:39.100Z,92403.84
2023-02-27T02:15:10.706Z,92397.56
2023-02-27T02:16:51.858Z,92391.50
2023-02-27T02:18:25.293Z,92401.44
2023-02-27T02:20:15.305Z,92399.38
2023-02-27T02:21:51.845Z,92408.84
2023-02-27T02:23:42.332Z,92426.56
2023-02-27T02:25:16.960Z,92443.00
2023-02-27T02:27:03.299Z,92428.03
2023-02-27T02:28:44.054Z,92428.84
2023-02-27T02:30:18.577Z,92427.13
2023-02-27T02:31:56.337Z,92439.41
2023-02-27T02:33:40.160Z,92441.00
2023-02-27T02:35:14.478Z,92434.06
2023-02-27T02:36:58.258Z,92456.75
2023-02-27T02:38:48.166Z,92462.41
2023-02-27T02:40:25.752Z,92474.22
2023-02-27T02:42:04.625Z,92479.78
2023-02-27T02:43:50.501Z,92490.69
2023-02-27T02:45:24.037Z,92492.72
2023-02-27T02:47:13.917Z,92470.91
2023-02-27T02:48:47.721Z,92492.81
2023-02-27T02:50:25.163Z,92507.38
2023-02-27T02:52:19.659Z,92490.31
2023-02-27T02:53:52.355Z,92511.72
2023-02-27T02:55:23.920Z,92457.38
2023-02-27T02:57:11.142Z,92450.56
2023-02-27T02:58:53.617Z,92463.47
2023-02-27T03:00:28.182Z,92418.72
2023-02-27T03:02:05.703Z,92404.84
2023-02-27T03:03:38.977Z,92477.16
2023-02-27T03:05:12.582Z,92499.25
2023-02-27T03:06:45.537Z,92492.38
2023-02-27T03:08:18.449Z,92485.19
2023-02-27T03:09:58.467Z,92469.66
2023-02-27T03:11:30.500Z,92463.44
2023-02-27T03:13:07.233Z,92486.94
2023-02-27T03:14:43.699Z,92493.59
2023-02-27T03:16:16.390Z,92507.00
2023-02-27T03:17:50.852Z,92518.31
2023-02-27T03:19:23.646Z,92519.22
2023-02-27T03:20:56.376Z,92521.91
2023-02-27T03:22:39.582Z,92530.88
2023-02-27T03:24:13.228Z,92531.00
2023-02-27T03:25:46.532Z,92530.50
2023-02-27T03:27:19.386Z,92535.06
2023-02-27T03:28:59.659Z,92541.84
2023-02-27T03:30:33.280Z,92537.56
2023-02-27T03:32:08.296Z,92538.84
2023-02-27T03:33:42.050Z,92528.91
2023-02-27T03:35:13.544Z,92522.47
2023-02-27T03:36:45.155Z,92533.66
2023-02-27T03:38:35.080Z,92514.91
2023-02-27T03:40:25.911Z,92517.78
2023-02-27T03:42:03.926Z,92516.38
2023-02-27T03:43:46.094Z,92517.16
2023-02-27T03:45:17.734Z,92522.50
2023-02-27T03:46:49.556Z,92530.09
2023-02-27T03:48:21.198Z,92538.72
2023-02-27T03:49:52.996Z,92543.28
2023-02-27T03:51:25.475Z,92548.94
2023-02-27T03:52:57.204Z,92550.84
2023-02-27T03:54:38.854Z,92546.56
2023-02-27T03:56:10.796Z,92552.84
2023-02-27T03:57:42.627Z,92556.34
2023-02-27T03:59:14.287Z,92561.50
2023-02-27T04:00:45.794Z,92574.91
2023-02-27T04:02:17.330Z,92579.94
2023-02-27T04:03:53.179Z,92576.69
2023-02-27T04:05:24.717Z,92575.44
2023-02-27T04:07:20.831Z,92568.41
2023-02-27T04:08:52.364Z,92563.69
2023-02-27T04:10:39.235Z,92569.41
2023-02-27T04:12:16.720Z,92573.88
2023-02-27T04:13:51.522Z,92560.34
2023-02-27T04:15:23.150Z,92568.25
2023-02-27T04:17:15.320Z,92572.53
2023-02-27T04:18:46.816Z,92567.34
2023-02-27T04:20:30.637Z,92579.38
2023-02-27T04:22:11.093Z,92583.94
2023-02-27T04:23:54.937Z,92599.13
2023-02-27T04:25:41.795Z,92595.03
2023-02-27T04:27:25.225Z,92603.28
2023-02-27T04:29:00.017Z,92606.13
2023-02-27T04:30:42.881Z,92622.41
2023-02-27T04:32:20.241Z,92624.28
2023-02-27T04:34:11.182Z,92630.44
2023-02-27T04:35:56.282Z,92627.28
2023-02-27T04:37:32.557Z,92625.53
2023-02-27T04:39:10.497Z,92631.19
2023-02-27T04:40:50.263Z,92634.47
2023-02-27T04:42:24.185Z,92636.84
2023-02-27T04:43:55.742Z,92643.00
2023-02-27T04:45:27.845Z,92639.84
2023-02-27T04:46:59.721Z,92638.81
2023-02-27T04:48:34.502Z,92642.31
2023-02-27T04:50:13.173Z,92643.13
2023-02-27T04:51:53.021Z,92645.81
2023-02-27T04:53:25.913Z,92650.06
2023-02-27T04:55:03.192Z,92652.97
2023-02-27T04:56:35.891Z,92648.34
2023-02-27T04:58:33.627Z,92647.16
2023-02-27T05:00:06.833Z,92657.56
2023-02-27T05:01:40.293Z,92659.66
2023-02-27T05:03:16.362Z,92659.16
2023-02-27T05:04:48.184Z,92664.03
2023-02-27T05:06:21.152Z,92666.41
2023-02-27T05:07:54.957Z,92668.78
2023-02-27T05:09:43.119Z,92667.19
2023-02-27T05:11:15.978Z,92666.91
2023-02-27T05:12:51.923Z,92665.00
2023-02-27T05:14:25.700Z,92667.69
2023-02-27T05:16:02.762Z,92670.97
2023-02-27T05:18:01.020Z,92668.78
2023-02-27T05:19:32.652Z,92673.06
2023-02-27T05:21:14.280Z,92675.25
2023-02-27T05:23:02.486Z,92680.75
2023-02-27T05:24:34.182Z,92683.50
2023-02-27T05:26:09.940Z,92676.25
2023-02-27T05:27:47.091Z,92675.78
2023-02-27T05:29:28.280Z,92680.84
2023-02-27T05:31:03.593Z,92674.09
2023-02-27T05:32:45.746Z,92678.66
2023-02-27T05:34:24.518Z,92676.16
2023-02-27T05:35:57.825Z,92666.25
2023-02-27T05:37:56.002Z,92671.47
2023-02-27T05:39:30.238Z,92668.38
2023-02-27T05:41:03.878Z,92672.03
2023-02-27T05:42:37.093Z,92670.34
2023-02-27T05:44:13.496Z,92676.38
2023-02-27T05:45:46.281Z,92677.69
2023-02-27T05:47:23.260Z,92677.38
2023-02-27T05:49:04.265Z,92674.59
2023-02-27T05:50:49.107Z,92667.22
2023-02-27T05:52:22.301Z,92676.41
2023-02-27T05:54:05.050Z,92680.88
2023-02-27T05:55:57.828Z,92689.16
2023-02-27T05:57:30.788Z,92687.03
2023-02-27T05:59:19.590Z,92694.50
2023-02-27T06:00:57.614Z,92688.09
2023-02-27T06:02:43.842Z,92687.97
2023-02-27T06:04:15.680Z,92690.50
2023-02-27T06:05:58.077Z,92693.88
2023-02-27T06:07:31.513Z,92693.75
2023-02-27T06:09:03.302Z,92700.00
2023-02-27T06:10:35.011Z,92698.13
2023-02-27T06:12:09.535Z,92694.84
2023-02-27T06:13:43.906Z,92697.72
2023-02-27T06:15:15.752Z,92698.53
2023-02-27T06:18:54.782Z,92708.72
2023-02-27T06:20:31.490Z,92703.06
2023-02-27T06:22:12.047Z,92710.34
2023-02-27T06:23:46.545Z,92711.47
2023-02-27T06:25:18.202Z,92709.91
2023-02-27T06:26:49.852Z,92707.03
2023-02-27T06:28:39.379Z,92705.78
2023-02-27T06:30:11.271Z,92700.91
2023-02-27T06:31:42.793Z,92705.78
2023-02-27T06:35:03.441Z,92710.25
2023-02-27T06:36:41.367Z,92708.66
2023-02-27T06:38:13.550Z,92717.69
2023-02-27T06:39:51.478Z,92701.06
2023-02-27T06:41:23.665Z,92712.44
2023-02-27T06:42:56.098Z,92705.81
2023-02-27T06:44:34.911Z,92705.50
2023-02-27T06:46:16.832Z,92715.91
2023-02-27T06:50:05.458Z,92713.69
2023-02-27T06:57:28.387Z,92719.09
2023-02-27T06:59:48.056Z,92728.97
2023-02-27T07:05:48.506Z,92739.47
2023-02-27T07:07:32.613Z,92737.84
2023-02-27T07:17:17.414Z,92744.97
2023-02-27T07:34:35.515Z,92767.28
2023-02-27T07:36:43.805Z,92765.72
2023-02-27T07:39:05.586Z,92765.97
2023-02-27T07:41:05.077Z,92761.34
2023-02-27T07:42:44.176Z,92769.22
2023-02-27T07:54:17.599Z,92773.88
2023-02-27T08:00:50.963Z,92768.47
2023-02-27T08:02:26.438Z,92775.81
2023-02-27T08:05:51.675Z,92779.03
2023-02-27T08:07:23.323Z,92772.50
2023-02-27T08:09:07.429Z,92776.78
2023-02-27T08:10:42.067Z,92774.97
2023-02-27T08:16:26.747Z,92777.69
2023-02-27T08:18:01.837Z,92770.78
2023-02-27T08:19:40.481Z,92771.81
2023-02-27T08:21:24.602Z,92760.84
2023-02-27T08:22:59.517Z,92773.72
2023-02-27T08:24:31.952Z,92776.16
2023-02-27T08:26:06.277Z,92764.97
2023-02-27T08:27:54.004Z,92765.44
2023-02-27T08:29:44.084Z,92775.91
2023-02-27T08:31:16.916Z,92772.88
2023-02-27T08:36:33.693Z,92773.13
2023-02-27T08:38:14.499Z,92769.97
2023-02-27T08:41:31.787Z,92771.00
2023-02-27T08:43:03.522Z,92773.16
2023-02-27T08:44:42.892Z,92775.75
2023-02-27T08:48:06.498Z,92778.94
2023-02-27T08:49:57.754Z,92776.03
2023-02-27T08:51:42.040Z,92779.72
2023-02-27T08:53:14.910Z,92784.81
2023-02-27T08:54:46.638Z,92780.31
2023-02-27T08:56:19.656Z,92776.69
2023-02-27T08:58:00.055Z,92785.13
2023-02-27T08:59:32.219Z,92781.88
2023-02-27T09:01:29.246Z,92787.28
2023-02-27T09:03:18.396Z,92783.31
2023-02-27T09:04:50.048Z,92789.28
2023-02-27T09:08:29.883Z,92795.09
2023-02-27T09:10:05.133Z,92794.56
2023-02-27T09:13:39.578Z,92790.50
2023-02-27T09:15:39.227Z,92790.16
2023-02-27T09:17:19.525Z,92790.84
2023-02-27T09:19:06.044Z,92788.47
2023-02-27T09:22:53.456Z,92796.00
2023-02-27T09:24:25.054Z,92805.16
2023-02-27T09:25:59.230Z,92805.59
2023-02-27T09:27:40.335Z,92813.38
2023-02-27T09:29:21.688Z,92811.78
2023-02-27T09:31:12.436Z,92814.16
2023-02-27T09:32:59.326Z,92821.63
2023-02-27T09:34:34.347Z,92821.63
2023-02-27T09:36:14.089Z,92822.28
2023-02-27T09:37:52.964Z,92821.25
2023-02-27T09:39:27.452Z,92820.91
2023-02-27T09:40:59.720Z,92826.00
2023-02-27T09:44:52.516Z,92826.09
2023-02-27T09:48:57.732Z,92809.34
2023-02-27T09:50:39.547Z,92824.78
2023-02-27T09:52:16.382Z,92826.31
2023-02-27T09:53:49.808Z,92826.69
2023-02-27T09:55:37.843Z,92823.53
2023-02-27T09:57:24.198Z,92822.66
2023-02-27T09:59:25.071Z,92822.97
2023-02-27T10:01:14.997Z,92822.88
2023-02-27T10:02:52.876Z,92827.59
2023-02-27T10:04:35.121Z,92831.81
2023-02-27T10:06:15.562Z,92830.16
2023-02-27T10:08:03.345Z,92827.22
2023-02-27T10:10:00.148Z,92822.16
2023-02-27T10:11:54.012Z,92822.50
2023-02-27T10:13:35.107Z,92819.91
2023-02-27T10:17:32.653Z,92821.59
2023-02-27T10:21:02.999Z,92815.81
2023-02-27T10:22:39.094Z,92803.81
2023-02-27T10:26:36.462Z,92809.69
2023-02-27T10:28:17.789Z,92802.63
2023-02-27T10:30:31.847Z,92803.84
2023-02-27T10:32:17.323Z,92805.81
2023-02-27T10:34:04.281Z,92808.09
2023-02-27T10:35:43.416Z,92819.84
2023-02-27T10:37:28.590Z,92805.13
2023-02-27T10:39:09.522Z,92802.84
2023-02-27T10:40:43.466Z,92805.13
2023-02-27T10:42:15.037Z,92799.63
2023-02-27T10:43:46.605Z,92808.38
2023-02-27T10:45:18.133Z,92813.75
2023-02-27T10:46:51.883Z,92799.09
2023-02-27T10:48:23.931Z,92793.94
2023-02-27T10:49:55.634Z,92799.13
2023-02-27T10:51:31.635Z,92798.94
2023-02-27T10:53:07.689Z,92804.44
2023-02-27T10:54:42.644Z,92798.13
2023-02-27T10:56:15.770Z,92799.66
2023-02-27T10:57:47.720Z,92800.09
2023-02-27T10:59:41.004Z,92799.66
2023-02-27T11:01:13.434Z,92795.94
2023-02-27T11:02:48.726Z,92791.03
2023-02-27T11:04:31.305Z,92803.47
2023-02-27T11:06:07.067Z,92801.84
2023-02-27T11:07:39.077Z,92799.09
2023-02-27T11:09:11.027Z,92805.84
2023-02-27T11:10:54.040Z,92801.72
2023-02-27T11:12:39.360Z,92798.47
2023-02-27T11:14:28.198Z,92793.25
2023-02-27T11:16:03.309Z,92781.25
2023-02-27T11:17:44.345Z,92803.22
2023-02-27T11:19:39.377Z,92794.09
2023-02-27T11:21:15.023Z,92789.47
2023-02-27T11:22:46.564Z,92801.56
2023-02-27T11:24:30.905Z,92794.19
2023-02-27T11:26:16.081Z,92794.69
2023-02-27T11:27:54.348Z,92795.19
2023-02-27T11:29:30.017Z,92790.94
2023-02-27T11:31:10.901Z,92786.63
2023-02-27T11:32:43.599Z,92792.72
2023-02-27T11:34:37.130Z,92779.78
2023-02-27T11:36:12.234Z,92781.25
2023-02-27T11:37:44.283Z,92787.31
2023-02-27T11:41:15.503Z,92777.72
2023-02-27T11:42:51.043Z,92771.50
2023-02-27T11:44:50.351Z,92780.00
2023-02-27T11:46:47.868Z,92785.06
2023-02-27T11:48:25.784Z,92777.81
2023-02-27T11:50:06.892Z,92783.22
2023-02-27T11:51:53.632Z,92783.91
2023-02-27T11:53:25.264Z,92777.53
2023-02-27T11:54:58.424Z,92780.75
2023-02-27T11:56:58.420Z,92777.31
2023-02-27T11:58:31.680Z,92784.16
2023-02-27T12:00:06.774Z,92778.16
2023-02-27T12:01:44.250Z,92798.06
2023-02-27T12:03:45.392Z,92780.41
2023-02-27T12:05:18.811Z,92787.00
2023-02-27T12:07:08.645Z,92787.44
2023-02-27T12:08:46.268Z,92788.00
2023-02-27T12:10:25.876Z,92776.41
2023-02-27T12:12:00.154Z,92770.72
2023-02-27T12:13:32.578Z,92785.94
2023-02-27T12:15:17.580Z,92788.66
2023-02-27T12:16:59.568Z,92783.34
2023-02-27T12:18:34.305Z,92796.47
2023-02-27T12:20:23.974Z,92780.03
2023-02-27T12:22:23.813Z,92782.69
2023-02-27T12:24:15.728Z,92777.59
2023-02-27T12:25:54.349Z,92784.97
2023-02-27T12:27:26.566Z,92787.25
2023-02-27T12:29:00.366Z,92789.44
2023-02-27T12:30:39.779Z,92775.31
2023-02-27T12:32:20.334Z,92783.50
2023-02-27T12:34:19.316Z,92776.41
2023-02-27T12:35:53.517Z,92786.59
2023-02-27T12:37:25.817Z,92783.03
2023-02-27T12:39:02.245Z,92791.72
2023-02-27T12:40:37.687Z,92792.78
2023-02-27T12:42:16.190Z,92795.03
2023-02-27T12:43:59.860Z,92795.63
2023-02-27T12:45:40.168Z,92794.81
2023-02-27T12:47:27.096Z,92789.81
2023-02-27T12:49:01.368Z,92782.75
2023-02-27T12:50:42.710Z,92790.97
2023-02-27T12:52:25.123Z,92784.31
2023-02-27T12:54:19.048Z,92790.09
2023-02-27T12:56:00.854Z,92783.22
2023-02-27T12:57:42.625Z,92782.44
2023-02-27T12:59:25.944Z,92783.09
2023-02-27T13:01:24.268Z,92786.72
2023-02-27T13:03:06.286Z,92787.59
2023-02-27T13:04:41.394Z,92771.63
2023-02-27T13:06:15.454Z,92772.53
2023-02-27T13:07:47.311Z,92773.44
2023-02-27T13:09:28.054Z,92778.63
2023-02-27T13:11:02.845Z,92776.50
2023-02-27T13:12:34.694Z,92769.94
2023-02-27T13:14:25.173Z,92769.69
2023-02-27T13:16:20.075Z,92766.81
2023-02-27T13:17:55.505Z,92775.53
2023-02-27T13:19:29.248Z,92769.06
2023-02-27T13:21:20.991Z,92773.00
2023-02-27T13:23:15.512Z,92778.06
2023-02-27T13:24:57.166Z,92772.41
2023-02-27T13:26:38.883Z,92772.75
2023-02-27T13:28:13.358Z,92771.19
2023-02-27T13:29:47.711Z,92766.44
2023-02-27T13:31:20.607Z,92762.94
2023-02-27T13:33:12.287Z,92757.06
2023-02-27T13:34:48.098Z,92757.16
2023-02-27T13:36:24.166Z,92752.66
2023-02-27T13:38:08.098Z,92746.09
2023-02-27T13:39:40.696Z,92751.97
2023-02-27T13:41:32.661Z,92751.25
2023-02-27T13:43:08.718Z,92758.69
2023-02-27T13:44:41.306Z,92763.34
2023-02-27T13:46:18.998Z,92754.16
2023-02-27T13:47:50.763Z,92763.16
2023-02-27T13:49:29.259Z,92767.03
2023-02-27T13:51:02.992Z,92757.91
2023-02-27T13:52:37.981Z,92766.38
2023-02-27T13:54:16.438Z,92768.56
2023-02-27T13:55:48.436Z,92766.25
2023-02-27T13:57:23.637Z,92760.19
2023-02-27T13:58:57.939Z,92767.53
2023-02-27T14:00:31.082Z,92774.88
2023-02-27T14:02:09.740Z,92767.09
2023-02-27T14:03:41.450Z,92758.53
2023-02-27T14:05:16.042Z,92764.59
2023-02-27T14:06:48.047Z,92762.78
2023-02-27T14:08:26.058Z,92770.47
2023-02-27T14:10:08.871Z,92773.19
2023-02-27T14:11:42.173Z,92774.31
2023-02-27T14:13:32.570Z,92774.56
2023-02-27T14:15:29.571Z,92771.94
2023-02-27T14:17:01.725Z,92792.25
2023-02-27T14:18:58.456Z,92790.78
2023-02-27T14:20:33.399Z,92808.16
2023-02-27T14:22:17.184Z,92811.72
2023-02-27T14:23:48.778Z,92818.50
2023-02-27T14:25:45.906Z,92815.31
2023-02-27T14:27:40.293Z,92819.91
2023-02-27T14:29:17.353Z,92823.63
2023-02-27T14:31:10.687Z,92821.13
2023-02-27T14:32:44.936Z,92824.41
2023-02-27T14:34:23.098Z,92834.91
2023-02-27T14:36:09.562Z,92835.47
2023-02-27T14:37:44.346Z,92843.25
2023-02-27T14:39:25.141Z,92842.47
2023-02-27T14:41:06.464Z,92848.97
2023-02-27T14:42:38.651Z,92847.16
2023-02-27T14:44:23.361Z,92856.09
2023-02-27T14:45:55.653Z,92852.03
2023-02-27T14:47:47.467Z,92862.44
2023-02-27T14:49:22.613Z,92854.84
2023-02-27T14:51:01.915Z,92865.63
2023-02-27T14:52:40.759Z,92872.00
2023-02-27T14:54:15.885Z,92867.75
2023-02-27T14:55:53.959Z,92868.59
2023-02-27T14:57:29.489Z,92867.47
2023-02-27T14:59:05.078Z,92861.81
2023-02-27T15:00:41.122Z,92862.31
2023-02-27T15:02:26.205Z,92867.31
2023-02-27T15:03:58.651Z,92867.75
2023-02-27T15:05:33.530Z,92873.69
2023-02-27T15:07:06.318Z,92883.38
2023-02-27T15:08:38.434Z,92880.72
2023-02-27T15:10:10.212Z,92884.88
2023-02-27T15:11:44.821Z,92882.84
2023-02-27T15:13:28.362Z,92893.03
2023-02-27T15:15:00.527Z,92896.06
2023-02-27T15:16:34.608Z,92893.22
2023-02-27T15:18:11.816Z,92898.00
2023-02-27T15:19:56.240Z,92891.97
2023-02-27T15:21:28.866Z,92902.44
2023-02-27T15:23:01.730Z,92895.47
2023-02-27T15:24:49.148Z,92897.06
2023-02-27T15:26:21.689Z,92903.56
2023-02-27T15:27:54.030Z,92897.06
2023-02-27T15:29:26.796Z,92901.97
2023-02-27T15:30:59.955Z,92900.88
2023-02-27T15:32:32.643Z,92909.56
2023-02-27T15:34:04.396Z,92906.72
2023-02-27T15:35:36.408Z,92911.34
2023-02-27T15:37:07.924Z,92916.72
2023-02-27T15:38:39.452Z,92918.94
2023-02-27T15:40:11.821Z,92910.53
2023-02-27T15:41:48.807Z,92909.56
2023-02-27T15:43:20.494Z,92908.16
2023-02-27T15:44:53.636Z,92906.88
2023-02-27T15:46:25.662Z,92916.09
2023-02-27T15:47:57.676Z,92924.00
2023-02-27T15:49:29.798Z,92924.16
2023-02-27T15:51:02.439Z,92921.63
2023-02-27T15:52:40.256Z,92924.00
2023-02-27T15:54:11.926Z,92929.53
2023-02-27T15:55:45.093Z,92928.44
2023-02-27T15:57:16.762Z,92929.72
2023-02-27T15:58:54.442Z,92938.91
2023-02-27T16:00:26.836Z,92934.16
2023-02-27T16:02:01.032Z,92935.69
2023-02-27T16:03:39.540Z,92938.22
2023-02-27T16:05:30.205Z,92933.31
2023-02-27T16:07:03.282Z,92940.41
2023-02-27T16:08:35.006Z,92937.88
2023-02-27T16:10:08.641Z,92934.34
2023-02-27T16:11:40.312Z,92946.09
2023-02-27T16:13:31.534Z,92952.22
2023-02-27T16:15:29.193Z,92951.75
2023-02-27T16:17:00.784Z,92955.19
2023-02-27T16:18:34.644Z,92964.06
2023-02-27T16:20:24.698Z,92971.84
2023-02-27T16:22:06.844Z,92976.72
2023-02-27T16:23:38.434Z,92984.81
2023-02-27T16:25:10.578Z,93001.63
2023-02-27T16:26:42.197Z,93007.16
2023-02-27T16:28:14.220Z,93008.94
2023-02-27T16:29:45.800Z,93005.94
2023-02-27T16:31:24.970Z,92998.19
2023-02-27T16:33:00.324Z,92986.44
2023-02-27T16:34:44.229Z,92989.47
2023-02-27T16:36:43.430Z,92992.28
2023-02-27T16:38:15.087Z,92994.63
2023-02-27T16:39:47.368Z,92999.34
2023-02-27T16:41:19.959Z,93001.50
2023-02-27T16:42:51.895Z,92992.28
2023-02-27T16:44:24.501Z,92983.38
2023-02-27T16:45:56.680Z,92992.03
2023-02-27T16:47:29.217Z,92987.38
2023-02-27T16:49:14.199Z,92988.31
2023-02-27T16:50:50.882Z,92996.38
2023-02-27T16:52:22.843Z,92992.69
2023-02-27T16:53:55.044Z,93002.66
2023-02-27T16:55:33.730Z,92997.28
2023-02-27T16:57:05.551Z,93001.06
2023-02-27T16:58:38.207Z,93002.16
2023-02-27T17:00:13.852Z,92996.47
2023-02-27T17:01:45.389Z,92988.91
2023-02-27T17:03:16.979Z,92992.69
2023-02-27T17:04:50.065Z,92985.72
2023-02-27T17:06:22.209Z,92990.91
2023-02-27T17:07:53.737Z,92989.16
2023-02-27T17:09:27.751Z,92990.56
2023-02-27T17:10:59.498Z,92991.75
2023-02-27T17:12:31.355Z,92987.78
2023-02-27T17:14:03.606Z,92987.09
2023-02-27T17:15:35.342Z,92980.91
2023-02-27T17:17:07.166Z,92988.19
2023-02-27T17:18:38.956Z,92998.16
2023-02-27T17:20:11.517Z,92997.97
2023-02-27T17:21:43.734Z,92995.91
2023-02-27T17:23:15.759Z,93006.66
2023-02-27T17:25:00.806Z,93005.84
2023-02-27T17:26:55.706Z,93008.72
2023-02-27T17:28:27.442Z,93013.56
2023-02-27T17:29:59.491Z,93014.16
2023-02-27T17:31:31.163Z,93019.59
2023-02-27T17:33:04.245Z,93019.00
2023-02-27T17:34:36.033Z,93016.78
2023-02-27T17:36:08.450Z,93026.13
2023-02-27T17:37:40.121Z,93031.50
2023-02-27T17:39:12.068Z,93025.03
2023-02-27T17:40:43.737Z,93021.72
2023-02-27T17:42:18.628Z,93024.91
2023-02-27T17:43:51.589Z,93030.09
2023-02-27T17:45:24.818Z,93026.91
2023-02-27T17:46:56.446Z,93034.31
2023-02-27T17:48:28.029Z,93035.53
2023-02-27T17:50:09.640Z,93032.19
2023-02-27T17:51:47.395Z,93035.25
2023-02-27T17:53:19.242Z,93022.44
2023-02-27T17:54:51.378Z,93029.81
2023-02-27T17:56:23.149Z,93031.69
2023-02-27T17:58:04.832Z,93036.78
2023-02-27T17:59:45.333Z,93039.66
2023-02-27T18:01:23.082Z,93050.63
2023-02-27T18:02:56.986Z,93053.91
2023-02-27T18:04:32.142Z,93044.84
2023-02-27T18:06:08.427Z,93056.31
2023-02-27T18:07:40.361Z,93064.47
2023-02-27T18:09:11.966Z,93066.56
2023-02-27T18:10:55.195Z,93074.03
2023-02-27T18:12:26.908Z,93074.84
2023-02-27T18:14:04.845Z,93078.03
2023-02-27T18:17:22.021Z,93073.25
2023-02-27T18:18:53.643Z,93073.53
2023-02-27T18:20:25.431Z,93074.84
2023-02-27T18:21:57.549Z,93069.34
2023-02-27T18:23:33.568Z,93074.53
2023-02-27T18:25:05.594Z,93077.03
2023-02-27T18:26:42.322Z,93076.84
2023-02-27T18:28:13.842Z,93084.41
2023-02-27T18:29:47.651Z,93078.72
2023-02-27T18:31:23.230Z,93090.28
2023-02-27T18:33:00.957Z,93095.53
2023-02-27T18:34:32.645Z,93110.09
2023-02-27T18:36:07.432Z,93130.88
2023-02-27T18:37:39.349Z,93152.41
2023-02-27T18:39:13.014Z,93159.56
2023-02-27T18:40:44.937Z,93165.94
2023-02-27T18:42:16.566Z,93166.25
2023-02-27T18:43:51.343Z,93162.81
2023-02-27T18:45:56.537Z,93160.59
2023-02-27T18:47:37.381Z,93152.94
2023-02-27T18:49:25.900Z,93150.63
2023-02-27T18:51:01.720Z,93146.16
2023-02-27T18:52:35.037Z,93141.94
2023-02-27T18:54:07.892Z,93145.03
2023-02-27T18:55:39.682Z,93147.47
2023-02-27T18:57:11.539Z,93155.53
2023-02-27T18:58:46.348Z,93153.94
2023-02-27T19:00:22.081Z,93157.13
2023-02-27T19:02:25.760Z,93154.94
2023-02-27T19:08:38.708Z,93157.97
2023-02-27T19:14:46.077Z,93162.06
2023-02-27T19:15:33.017Z,93164.75
2023-02-27T19:16:54.550Z,93162.06
2023-02-27T19:21:16.184Z,93155.03
2023-02-27T19:24:51.887Z,93148.94
2023-02-27T19:27:01.403Z,93141.88
2023-02-27T19:31:56.161Z,93132.28
2023-02-27T19:37:28.149Z,93135.66
2023-02-27T19:41:34.522Z,93161.34
2023-02-27T19:45:34.193Z,93152.59
2023-02-27T19:52:59.100Z,93169.84
2023-02-27T19:54:44.760Z,93176.28
2023-02-27T19:56:46.840Z,93182.75
2023-02-27T20:29:47.921Z,93260.63
2023-02-27T20:31:57.920Z,93247.22
2023-02-27T20:33:30.171Z,93238.50
2023-02-27T20:35:10.585Z,93236.38
2023-02-27T20:36:42.682Z,93248.69
2023-02-27T20:38:18.129Z,93251.91
2023-02-27T20:39:53.140Z,93263.94
2023-02-27T20:41:29.015Z,93275.38
2023-02-27T20:43:24.205Z,93286.63
2023-02-27T20:45:02.476Z,93297.69
2023-02-27T20:46:49.531Z,93303.47
2023-02-27T20:48:23.251Z,93313.69
2023-02-27T20:49:55.185Z,93330.56
2023-02-27T20:51:27.791Z,93334.34
2023-02-27T20:52:59.809Z,93341.41
2023-02-27T20:54:31.371Z,93338.88
2023-02-27T20:56:03.132Z,93348.41
2023-02-27T20:57:34.774Z,93348.75
2023-02-27T20:59:06.826Z,93352.78
2023-02-27T21:00:38.538Z,93348.47
2023-02-27T21:02:18.656Z,93363.66
2023-02-27T21:03:55.876Z,93369.59
2023-02-27T21:05:27.847Z,93384.63
2023-02-27T21:06:59.732Z,93388.91
2023-02-27T21:08:31.616Z,93383.56
2023-02-27T21:10:04.837Z,93390.72
2023-02-27T21:11:37.289Z,93394.19
2023-02-27T21:13:09.078Z,93405.16
2023-02-27T21:14:42.389Z,93397.69
2023-02-27T21:16:15.942Z,93406.03
2023-02-27T21:17:47.510Z,93406.84
2023-02-27T21:19:19.404Z,93410.06
2023-02-27T21:20:50.920Z,93411.06
2023-02-27T21:22:23.367Z,93408.38
2023-02-27T21:23:55.622Z,93400.28
2023-02-27T21:25:27.580Z,93389.81
2023-02-27T21:26:59.656Z,93367.31
2023-02-27T21:28:32.901Z,93332.75
2023-02-27T21:30:05.699Z,93319.63
2023-02-27T21:31:37.476Z,93308.72
2023-02-27T21:33:09.154Z,93301.56
2023-02-27T21:34:41.045Z,93288.50
2023-02-27T21:36:12.800Z,93295.78